createdAt,value
2022-09-20T00:01:29.115Z,3.47
2022-09-20T00:04:16.068Z,3.10
2022-09-20T00:07:03.126Z,2.60
2022-09-20T00:09:50.228Z,2.67
2022-09-20T00:12:37.333Z,2.77
2022-09-20T00:15:24.272Z,2.80
2022-09-20T00:18:11.757Z,2.40
2022-09-20T00:20:58.753Z,2.60
2022-09-20T00:23:46.486Z,3.00
2022-09-20T00:26:33.750Z,3.17
2022-09-20T00:29:20.934Z,2.80
2022-09-20T00:32:07.931Z,2.60
2022-09-20T00:35:12.938Z,2.97
2022-09-20T00:37:59.860Z,3.10
2022-09-20T00:40:46.777Z,3.23
2022-09-20T00:43:39.533Z,2.47
2022-09-20T00:46:34.425Z,2.73
2022-09-20T00:49:27.888Z,3.53
2022-09-20T00:52:15.453Z,3.03
2022-09-20T00:55:07.584Z,2.87
2022-09-20T00:57:55.793Z,3.40
2022-09-20T01:00:45.735Z,3.50
2022-09-20T01:03:35.438Z,3.20
2022-09-20T01:06:22.601Z,2.60
2022-09-20T01:09:09.581Z,3.03
2022-09-20T01:11:58.426Z,2.50
2022-09-20T01:14:47.475Z,3.03
2022-09-20T01:17:37.774Z,3.03
2022-09-20T01:20:38.972Z,2.97
2022-09-20T01:23:45.437Z,3.13
2022-09-20T01:27:04.244Z,2.50
2022-09-20T01:30:02.497Z,3.13
2022-09-20T01:33:12.861Z,2.40
2022-09-20T01:36:04.734Z,2.73
2022-09-20T01:39:17.453Z,2.60
2022-09-20T01:42:13.594Z,2.60
2022-09-20T01:45:28.166Z,2.80
2022-09-20T01:48:36.074Z,2.70
2022-09-20T01:51:53.436Z,2.90
2022-09-20T01:55:17.924Z,2.53
2022-09-20T01:59:12.810Z,2.63
2022-09-20T02:02:06.789Z,2.50
2022-09-20T02:05:31.317Z,3.00
2022-09-20T02:08:52.787Z,3.77
2022-09-20T02:12:04.616Z,3.03
2022-09-20T02:15:18.849Z,2.43
2022-09-20T02:18:33.329Z,2.83
2022-09-20T02:21:32.692Z,3.07
2022-09-20T02:24:39.724Z,3.10
2022-09-20T02:28:14.782Z,3.27
2022-09-20T02:31:33.650Z,3.03
2022-09-20T02:34:26.568Z,3.00
2022-09-20T02:37:32.187Z,2.87
2022-09-20T02:40:56.666Z,2.33
2022-09-20T02:44:08.547Z,3.47
2022-09-20T02:47:33.641Z,2.70
2022-09-20T02:50:31.474Z,2.77
2022-09-20T02:53:51.894Z,3.07
2022-09-20T02:57:03.311Z,3.63
2022-09-20T03:00:10.401Z,3.50
2022-09-20T03:03:06.366Z,3.60
2022-09-20T03:06:14.958Z,3.27
2022-09-20T03:09:18.467Z,3.30
2022-09-20T03:12:27.080Z,2.67
2022-09-20T03:15:36.607Z,3.10
2022-09-20T03:18:42.304Z,3.53
2022-09-20T03:21:47.589Z,2.87
2022-09-20T03:24:52.680Z,2.57
2022-09-20T03:27:49.325Z,3.40
2022-09-20T03:30:52.781Z,3.13
2022-09-20T03:33:58.341Z,3.40
2022-09-20T03:36:54.668Z,3.30
2022-09-20T03:40:06.488Z,2.97
2022-09-20T03:42:54.642Z,3.53
2022-09-20T03:45:55.621Z,3.60
2022-09-20T03:48:58.743Z,3.67
2022-09-20T03:51:48.661Z,2.77
2022-09-20T03:54:38.568Z,3.10
2022-09-20T03:57:56.374Z,3.37
2022-09-20T04:00:49.449Z,3.23
2022-09-20T04:03:59.370Z,3.27
2022-09-20T04:07:20.428Z,2.70
2022-09-20T04:10:18.969Z,2.93
2022-09-20T04:13:30.250Z,2.90
2022-09-20T04:16:48.426Z,2.87
2022-09-20T04:19:43.401Z,3.27
2022-09-20T04:22:30.829Z,3.03
2022-09-20T04:25:22.572Z,3.60
2022-09-20T04:28:19.501Z,3.53
2022-09-20T04:31:23.284Z,2.80
2022-09-20T04:34:45.002Z,3.00
2022-09-20T04:37:35.722Z,3.23
2022-09-20T04:40:37.836Z,3.30
2022-09-20T04:44:01.728Z,3.27
2022-09-20T04:47:15.597Z,3.13
2022-09-20T04:50:30.449Z,3.00
2022-09-20T04:53:39.449Z,2.57
2022-09-20T04:56:32.566Z,2.77
2022-09-20T04:59:22.525Z,2.90
2022-09-20T05:02:38.089Z,3.17
2022-09-20T05:05:46.324Z,3.60
2022-09-20T05:08:40.884Z,2.93
2022-09-20T05:11:46.512Z,2.73
2022-09-20T05:14:55.681Z,3.23
2022-09-20T05:18:21.576Z,3.00
2022-09-20T05:21:11.402Z,2.70
2022-09-20T05:24:17.210Z,3.23
2022-09-20T05:27:41.542Z,3.33
2022-09-20T05:30:38.866Z,3.90
2022-09-20T05:34:05.907Z,3.30
2022-09-20T05:37:05.990Z,3.20
2022-09-20T05:40:04.455Z,4.23
2022-09-20T05:43:26.466Z,3.17
2022-09-20T05:46:34.794Z,3.37
2022-09-20T05:49:27.501Z,3.50
2022-09-20T05:52:43.157Z,3.33
2022-09-20T05:55:54.317Z,3.60
2022-09-20T05:58:54.465Z,3.40
2022-09-20T06:02:22.718Z,3.97
2022-09-20T06:05:24.500Z,3.47
2022-09-20T06:08:12.092Z,3.90
2022-09-20T06:11:37.358Z,3.80
2022-09-20T06:14:42.941Z,3.67
2022-09-20T06:17:43.997Z,3.93
2022-09-20T06:20:44.872Z,3.50
2022-09-20T06:23:32.435Z,3.83
2022-09-20T06:26:26.095Z,3.90
2022-09-20T06:29:15.218Z,4.13
2022-09-20T06:32:02.553Z,3.90
2022-09-20T06:34:50.268Z,4.00
2022-09-20T06:38:06.012Z,3.37
2022-09-20T06:41:11.549Z,3.17
2022-09-20T06:44:00.781Z,3.73
2022-09-20T06:46:47.781Z,3.57
2022-09-20T06:49:36.046Z,3.30
2022-09-20T06:52:23.192Z,3.00
2022-09-20T06:55:19.105Z,3.53
2022-09-20T06:58:06.123Z,3.13
2022-09-20T07:00:53.599Z,3.40
2022-09-20T07:03:41.834Z,3.40
2022-09-20T07:06:29.281Z,3.17
2022-09-20T07:09:17.031Z,2.73
2022-09-20T07:12:04.181Z,3.20
2022-09-20T07:14:51.641Z,3.20
2022-09-20T07:17:38.553Z,3.40
2022-09-20T07:20:25.788Z,3.53
2022-09-20T07:23:12.832Z,4.13
2022-09-20T07:26:01.080Z,3.70
2022-09-20T07:28:49.656Z,4.00
2022-09-20T07:31:36.810Z,4.17
2022-09-20T07:34:24.081Z,3.60
2022-09-20T07:37:11.781Z,3.87
2022-09-20T07:39:58.777Z,4.10
2022-09-20T07:42:46.154Z,4.90
2022-09-20T07:45:34.329Z,3.80
2022-09-20T07:48:26.026Z,3.20
2022-09-20T07:51:13.868Z,3.53
2022-09-20T07:54:00.890Z,4.23
2022-09-20T07:56:48.593Z,3.50
2022-09-20T07:59:36.246Z,3.77
2022-09-20T08:02:23.584Z,3.60
2022-09-20T08:05:11.975Z,3.63
2022-09-20T08:08:01.412Z,3.93
2022-09-20T08:10:48.651Z,3.57
2022-09-20T08:16:47.695Z,3.43
2022-09-20T08:19:35.957Z,2.90
2022-09-20T08:22:23.341Z,3.23
2022-09-20T08:25:10.546Z,3.43
2022-09-20T08:27:57.800Z,3.33
2022-09-20T08:30:44.954Z,3.10
2022-09-20T08:41:32.372Z,3.27
2022-09-20T08:44:35.099Z,3.03
2022-09-20T08:47:35.975Z,3.03
2022-09-20T08:50:23.526Z,2.60
2022-09-20T08:53:14.932Z,3.37
2022-09-20T08:56:04.475Z,2.67
2022-09-20T08:58:51.971Z,2.30
2022-09-20T09:01:38.929Z,2.20
2022-09-20T09:04:35.299Z,2.20
2022-09-20T09:07:25.208Z,2.40
2022-09-20T09:10:12.326Z,2.03
2022-09-20T09:13:00.051Z,2.00
2022-09-20T09:15:54.253Z,2.30
2022-09-20T09:18:45.409Z,2.40
2022-09-20T09:21:33.833Z,2.33
2022-09-20T09:24:20.914Z,2.33
2022-09-20T09:27:16.713Z,2.23
2022-09-20T09:30:21.101Z,2.87
2022-09-20T09:33:20.044Z,2.87
2022-09-20T09:36:15.241Z,2.80
2022-09-20T09:39:50.400Z,3.23
2022-09-20T09:42:37.452Z,3.17
2022-09-20T09:45:31.610Z,2.80
2022-09-20T09:48:33.268Z,3.20
2022-09-20T09:51:23.348Z,3.20
2022-09-20T09:54:17.874Z,2.70
2022-09-20T09:57:23.579Z,3.10
2022-09-20T10:00:20.876Z,2.80
2022-09-20T10:03:32.570Z,2.50
2022-09-20T10:06:22.639Z,2.93
2022-09-20T10:09:28.766Z,2.50
2022-09-20T10:12:28.764Z,2.50
2022-09-20T10:15:41.712Z,2.83
2022-09-20T10:18:44.035Z,2.13
2022-09-20T10:21:42.017Z,2.23
2022-09-20T10:24:51.181Z,2.27
2022-09-20T10:27:39.269Z,1.77
2022-09-20T10:30:42.923Z,2.33
2022-09-20T10:34:00.305Z,2.47
2022-09-20T10:37:22.741Z,2.10
2022-09-20T10:40:25.109Z,2.33
2022-09-20T10:43:29.351Z,3.00
2022-09-20T10:46:38.156Z,2.70
2022-09-20T10:49:33.713Z,2.70
2022-09-20T10:52:54.541Z,2.47
2022-09-20T10:55:46.554Z,2.60
2022-09-20T10:59:19.142Z,3.30
2022-09-20T11:02:33.348Z,2.80
2022-09-20T11:05:35.051Z,2.27
2022-09-20T11:08:27.076Z,2.40
2022-09-20T11:11:25.948Z,2.00
2022-09-20T11:14:19.503Z,2.50
2022-09-20T11:17:15.735Z,2.23
2022-09-20T11:20:08.466Z,1.57
2022-09-20T11:23:04.142Z,1.77
2022-09-20T11:26:02.621Z,1.50
2022-09-20T11:28:55.260Z,2.20
2022-09-20T11:31:46.288Z,1.70
2022-09-20T11:34:41.818Z,1.53
2022-09-20T11:37:40.900Z,1.50
2022-09-20T11:40:33.101Z,1.90
2022-09-20T11:43:22.105Z,1.50
2022-09-20T11:46:14.025Z,1.30
2022-09-20T11:49:24.038Z,0.87
2022-09-20T11:52:37.538Z,0.90
2022-09-20T11:55:52.789Z,0.80
2022-09-20T11:58:49.077Z,0.70
2022-09-20T12:01:38.937Z,0.90
2022-09-20T12:04:33.663Z,0.73
2022-09-20T12:07:26.596Z,1.00
2022-09-20T12:10:27.080Z,0.90
2022-09-20T12:13:26.735Z,1.03
2022-09-20T12:16:17.405Z,0.90
2022-09-20T12:19:09.696Z,1.17
2022-09-20T12:21:59.672Z,0.90
2022-09-20T12:25:26.770Z,0.83
2022-09-20T12:28:15.997Z,0.80
2022-09-20T12:31:21.935Z,0.90
2022-09-20T12:34:12.072Z,1.00
2022-09-20T12:37:00.247Z,0.90
2022-09-20T12:39:56.008Z,1.00
2022-09-20T12:42:43.633Z,0.87
2022-09-20T12:45:31.216Z,0.80
2022-09-20T12:48:20.276Z,0.90
2022-09-20T12:51:52.224Z,0.97
2022-09-20T12:54:52.493Z,1.00
2022-09-20T12:57:40.924Z,1.43
2022-09-20T13:00:32.008Z,1.00
2022-09-20T13:03:28.540Z,1.23
2022-09-20T13:06:16.592Z,1.30
2022-09-20T13:09:09.253Z,1.37
2022-09-20T13:12:01.296Z,1.30
2022-09-20T13:14:49.394Z,1.40
2022-09-20T13:17:37.314Z,1.57
2022-09-20T13:20:31.196Z,1.60
2022-09-20T13:23:32.159Z,1.40
2022-09-20T13:26:30.164Z,1.70
2022-09-20T13:29:30.658Z,1.30
2022-09-20T13:32:23.679Z,1.60
2022-09-20T13:35:14.523Z,1.20
2022-09-20T13:38:07.491Z,1.10
2022-09-20T13:41:03.606Z,1.00
2022-09-20T13:43:51.408Z,1.30
2022-09-20T13:46:44.953Z,1.10
2022-09-20T13:49:32.771Z,0.97
2022-09-20T13:52:28.237Z,1.27
2022-09-20T13:55:39.266Z,0.87
2022-09-20T13:58:31.741Z,0.80
2022-09-20T14:01:26.718Z,1.07
2022-09-20T14:04:16.589Z,1.17
2022-09-20T14:07:06.825Z,1.13
2022-09-20T14:09:55.248Z,1.23
2022-09-20T14:12:42.484Z,1.00
2022-09-20T14:15:39.504Z,1.30
2022-09-20T14:18:27.637Z,1.07
2022-09-20T14:21:21.534Z,1.10
2022-09-20T14:24:14.180Z,1.20
2022-09-20T14:27:04.167Z,1.33
2022-09-20T14:29:53.259Z,1.23
2022-09-20T14:32:51.768Z,1.50
2022-09-20T14:35:47.608Z,1.40
2022-09-20T14:38:34.967Z,1.63
2022-09-20T14:41:48.660Z,1.50
2022-09-20T14:44:37.082Z,1.93
2022-09-20T14:47:52.622Z,1.53
2022-09-20T14:50:43.292Z,1.73
2022-09-20T14:53:31.901Z,1.50
2022-09-20T14:56:35.670Z,1.60
2022-09-20T14:59:36.881Z,1.63
2022-09-20T15:02:25.541Z,1.73
2022-09-20T15:05:26.110Z,1.80
2022-09-20T15:08:15.503Z,1.60
2022-09-20T15:11:03.068Z,1.70
2022-09-20T15:13:50.046Z,1.83
2022-09-20T15:16:37.136Z,1.80
2022-09-20T15:19:24.208Z,1.67
2022-09-20T15:22:11.769Z,1.90
2022-09-20T15:24:59.005Z,1.73
2022-09-20T15:27:47.737Z,1.70
2022-09-20T15:30:35.144Z,2.03
2022-09-20T15:33:22.311Z,1.83
2022-09-20T15:36:10.934Z,2.50
2022-09-20T15:38:58.431Z,2.20
2022-09-20T15:41:47.039Z,2.00
2022-09-20T15:44:34.106Z,1.77
2022-09-20T15:47:23.988Z,2.43
2022-09-20T15:50:11.208Z,1.80
2022-09-20T15:53:00.071Z,2.10
2022-09-20T15:55:47.202Z,1.80
2022-09-20T15:58:36.260Z,2.03
2022-09-20T16:01:24.225Z,1.80
2022-09-20T16:04:19.644Z,1.83
2022-09-20T16:07:07.374Z,1.87
2022-09-20T16:09:55.851Z,1.60
2022-09-20T16:12:42.839Z,1.40
2022-09-20T16:15:30.482Z,1.30
2022-09-20T16:18:35.999Z,1.20
2022-09-20T16:21:23.563Z,1.50
2022-09-20T16:24:12.581Z,1.20
2022-09-20T16:27:01.608Z,1.40
2022-09-20T16:29:48.499Z,1.27
2022-09-20T16:32:35.647Z,1.00
2022-09-20T16:35:22.649Z,1.00
2022-09-20T16:38:11.114Z,0.90
2022-09-20T16:41:00.316Z,1.00
2022-09-20T16:43:50.134Z,1.07
2022-09-20T16:46:37.382Z,0.80
2022-09-20T16:49:26.529Z,0.80
2022-09-20T16:52:13.504Z,0.93
2022-09-20T16:55:03.345Z,1.00
2022-09-20T16:57:50.845Z,0.80
2022-09-20T17:00:37.983Z,0.73
2022-09-20T17:03:27.263Z,0.90
2022-09-20T17:06:16.457Z,1.10
2022-09-20T17:09:05.702Z,1.10
2022-09-20T17:11:53.707Z,1.10
2022-09-20T17:14:40.601Z,0.70
2022-09-20T17:17:27.617Z,0.60
2022-09-20T17:20:14.785Z,0.93
2022-09-20T17:23:02.132Z,0.90
2022-09-20T17:25:50.873Z,0.90
2022-09-20T17:28:51.507Z,0.80
2022-09-20T17:31:41.738Z,1.10
2022-09-20T17:34:29.569Z,0.87
2022-09-20T17:37:16.564Z,0.80
2022-09-20T17:40:04.266Z,1.10
2022-09-20T17:42:51.813Z,1.20
2022-09-20T17:45:38.739Z,1.30
2022-09-20T17:48:25.645Z,2.23
2022-09-20T17:51:12.860Z,3.20
2022-09-20T17:54:00.384Z,2.80
2022-09-20T17:56:49.498Z,2.73
2022-09-20T17:59:36.820Z,2.80
2022-09-20T18:02:23.885Z,2.70
2022-09-20T18:05:10.852Z,3.63
2022-09-20T18:07:57.798Z,3.73
2022-09-20T18:10:55.972Z,4.20
2022-09-20T18:13:43.419Z,4.10
2022-09-20T18:16:35.068Z,4.80
2022-09-20T18:19:23.030Z,4.13
2022-09-20T18:22:10.221Z,4.30
2022-09-20T18:24:57.140Z,3.63
2022-09-20T18:27:44.045Z,3.50
2022-09-20T18:30:32.109Z,3.60
2022-09-20T18:33:19.023Z,3.40
2022-09-20T18:36:06.449Z,3.30
2022-09-20T18:38:54.916Z,4.43
2022-09-20T18:41:44.134Z,4.87
2022-09-20T18:44:34.500Z,5.47
2022-09-20T18:47:21.781Z,4.97
2022-09-20T18:50:10.577Z,5.30
2022-09-20T18:52:59.670Z,5.03
2022-09-20T18:55:46.931Z,6.40
2022-09-20T18:58:36.250Z,5.37
2022-09-20T19:01:48.313Z,5.00
2022-09-20T19:04:53.389Z,6.13
2022-09-20T19:07:51.730Z,5.17
2022-09-20T19:10:47.397Z,4.90
2022-09-20T19:13:45.389Z,5.60
2022-09-20T19:16:41.206Z,5.53
2022-09-20T19:20:18.695Z,5.23
2022-09-20T19:23:43.234Z,5.00
2022-09-20T19:26:38.925Z,4.50
2022-09-20T19:29:29.344Z,4.10
2022-09-20T19:32:21.730Z,4.30
2022-09-20T19:35:24.328Z,4.30
2022-09-20T19:38:21.042Z,4.27
2022-09-20T19:41:52.912Z,4.10
2022-09-20T19:45:03.881Z,4.40
2022-09-20T19:48:31.932Z,4.80
2022-09-20T19:51:20.358Z,5.23
2022-09-20T19:54:12.178Z,5.53
2022-09-20T19:57:01.109Z,7.13
2022-09-20T19:59:50.751Z,6.53
2022-09-20T20:02:38.027Z,6.37
2022-09-20T20:05:28.027Z,7.53
2022-09-20T20:08:42.020Z,6.40
2022-09-20T20:11:36.996Z,5.60
2022-09-20T20:15:03.926Z,7.10
2022-09-20T20:18:16.937Z,6.67
2022-09-20T20:21:18.449Z,6.77
2022-09-20T20:24:25.871Z,7.83
2022-09-20T20:27:12.809Z,7.93
2022-09-20T20:30:00.411Z,7.67
2022-09-20T20:32:47.775Z,6.20
2022-09-20T20:35:34.853Z,6.50
2022-09-20T20:38:26.480Z,6.80
2022-09-20T20:41:15.882Z,6.53
2022-09-20T20:44:06.370Z,6.63
2022-09-20T20:46:53.528Z,6.70
2022-09-20T20:49:40.458Z,6.50
2022-09-20T20:52:27.419Z,6.40
2022-09-20T20:55:15.874Z,6.50
2022-09-20T20:58:02.892Z,7.23
2022-09-20T21:00:50.143Z,6.40
2022-09-20T21:03:37.732Z,7.40
2022-09-20T21:06:30.232Z,7.40
2022-09-20T21:09:17.259Z,7.00
2022-09-20T21:12:05.147Z,7.00
2022-09-20T21:14:52.588Z,7.70
2022-09-20T21:17:39.559Z,8.37
2022-09-20T21:20:26.513Z,7.97
2022-09-20T21:23:13.432Z,7.50
2022-09-20T21:26:07.154Z,7.13
2022-09-20T21:28:59.594Z,7.47
2022-09-20T21:31:47.017Z,7.50
2022-09-20T21:34:35.057Z,8.33
2022-09-20T21:37:22.061Z,7.37
2022-09-20T21:40:10.376Z,8.00
2022-09-20T21:42:57.310Z,7.90
2022-09-20T21:45:46.585Z,7.17
2022-09-20T21:48:33.737Z,7.70
2022-09-20T21:51:21.510Z,7.77
2022-09-20T21:54:09.407Z,7.83
2022-09-20T21:56:59.294Z,8.43
2022-09-20T21:59:46.281Z,7.40
2022-09-20T22:02:34.391Z,8.20
2022-09-20T22:05:21.796Z,9.93
2022-09-20T22:08:08.858Z,7.77
2022-09-20T22:10:57.353Z,8.33
2022-09-20T22:13:46.653Z,9.20
2022-09-20T22:16:37.167Z,9.20
2022-09-20T22:19:24.618Z,8.90
2022-09-20T22:22:11.576Z,8.60
2022-09-20T22:24:58.513Z,8.63
2022-09-20T22:27:45.541Z,9.37
2022-09-20T22:30:33.134Z,10.47
2022-09-20T22:33:20.112Z,9.10
2022-09-20T22:36:08.838Z,10.10
2022-09-20T22:38:56.263Z,10.63
2022-09-20T22:41:43.347Z,10.37
2022-09-20T22:44:30.263Z,9.70
2022-09-20T22:47:17.150Z,10.33
2022-09-20T22:50:04.424Z,10.23
2022-09-20T22:52:51.383Z,9.50
2022-09-20T22:55:38.481Z,9.60
2022-09-20T22:58:25.409Z,9.30
2022-09-20T23:01:21.224Z,9.37
2022-09-20T23:04:17.189Z,11.07
2022-09-20T23:07:04.869Z,8.97
2022-09-20T23:09:51.978Z,8.90
2022-09-20T23:12:38.958Z,9.33
2022-09-20T23:15:26.052Z,9.80
2022-09-20T23:18:12.969Z,9.73
2022-09-20T23:21:01.740Z,8.87
2022-09-20T23:23:53.539Z,9.00
2022-09-20T23:26:41.758Z,9.23
2022-09-20T23:29:29.884Z,8.93
2022-09-20T23:32:16.897Z,9.33
2022-09-20T23:35:04.070Z,9.33
2022-09-20T23:37:51.050Z,9.03
2022-09-20T23:40:38.257Z,10.03
2022-09-20T23:43:25.392Z,9.00
2022-09-20T23:46:14.032Z,9.57
2022-09-20T23:49:01.338Z,9.13
2022-09-20T23:51:48.233Z,9.60
2022-09-20T23:54:35.310Z,8.70
2022-09-20T23:57:22.285Z,9.47
